createdAt,value
2019-02-12T00:02:17.539Z,46.76
2019-02-12T00:04:46.484Z,46.70
2019-02-12T00:07:15.414Z,46.74
2019-02-12T00:09:44.350Z,46.74
2019-02-12T00:12:13.288Z,46.71
2019-02-12T00:14:42.264Z,46.71
2019-02-12T00:17:11.190Z,46.70
2019-02-12T00:19:40.467Z,46.67
2019-02-12T00:22:09.426Z,46.69
2019-02-12T00:24:38.396Z,46.68
2019-02-12T00:27:07.394Z,46.63
2019-02-12T00:29:36.266Z,46.64
2019-02-12T00:32:05.202Z,46.61
2019-02-12T00:34:34.067Z,46.61
2019-02-12T00:37:03.005Z,46.63
2019-02-12T00:39:31.961Z,46.60
2019-02-12T00:42:00.952Z,46.57
2019-02-12T00:44:29.935Z,46.57
2019-02-12T00:46:58.869Z,46.53
2019-02-12T00:49:27.826Z,46.54
2019-02-12T00:51:56.772Z,46.54
2019-02-12T00:54:25.704Z,46.58
2019-02-12T00:56:54.646Z,46.57
2019-02-12T00:59:23.633Z,46.60
2019-02-12T01:01:52.631Z,46.58
2019-02-12T01:04:21.564Z,46.56
2019-02-12T01:06:50.540Z,46.58
2019-02-12T01:09:19.471Z,46.60
2019-02-12T01:11:48.445Z,46.63
2019-02-12T01:14:17.362Z,46.63
2019-02-12T01:16:46.346Z,46.69
2019-02-12T01:19:15.196Z,46.67
2019-02-12T01:21:44.169Z,46.69
2019-02-12T01:24:13.111Z,46.65
2019-02-12T01:26:42.056Z,46.62
2019-02-12T01:29:10.984Z,46.58
2019-02-12T01:31:39.945Z,46.56
2019-02-12T01:34:08.798Z,46.48
2019-02-12T01:36:37.761Z,46.46
2019-02-12T01:39:27.372Z,46.35
2019-02-12T01:41:56.334Z,46.31
2019-02-12T01:44:27.676Z,46.29
2019-02-12T01:46:55.958Z,46.27
2019-02-12T01:49:24.893Z,46.25
2019-02-12T01:51:53.867Z,46.22
2019-02-12T01:54:22.807Z,46.20
2019-02-12T01:56:51.675Z,46.19
2019-02-12T01:59:20.625Z,46.21
2019-02-12T02:01:49.491Z,46.19
2019-02-12T02:04:18.455Z,46.21
2019-02-12T02:06:47.390Z,46.24
2019-02-12T02:09:16.289Z,46.28
2019-02-12T02:11:45.216Z,46.29
2019-02-12T02:14:14.189Z,46.37
2019-02-12T02:16:43.141Z,46.36
2019-02-12T02:19:12.132Z,46.32
2019-02-12T02:21:44.103Z,46.28
2019-02-12T02:24:11.658Z,46.30
2019-02-12T02:26:40.624Z,46.36
2019-02-12T02:29:09.577Z,46.31
2019-02-12T02:31:38.512Z,46.32
2019-02-12T02:34:07.457Z,46.29
2019-02-12T02:36:36.385Z,46.26
2019-02-12T02:39:06.058Z,46.27
2019-02-12T02:41:34.999Z,46.44
2019-02-12T02:44:03.958Z,46.46
2019-02-12T02:46:32.895Z,46.54
2019-02-12T02:49:01.894Z,46.58
2019-02-12T02:51:30.819Z,46.57
2019-02-12T02:53:59.759Z,46.62
2019-02-12T02:56:28.682Z,46.63
2019-02-12T02:58:57.594Z,46.67
2019-02-12T03:01:26.529Z,46.63
2019-02-12T03:03:55.473Z,46.61
2019-02-12T03:06:24.325Z,46.58
2019-02-12T03:08:53.264Z,46.55
2019-02-12T03:11:22.127Z,46.50
2019-02-12T03:13:51.077Z,46.44
2019-02-12T03:16:20.039Z,46.43
2019-02-12T03:18:48.970Z,46.41
2019-02-12T03:21:17.899Z,46.35
2019-02-12T03:23:47.178Z,46.38
2019-02-12T03:26:16.105Z,46.37
2019-02-12T03:28:45.040Z,46.31
2019-02-12T03:31:13.984Z,46.23
2019-02-12T03:33:42.908Z,46.19
2019-02-12T03:36:11.846Z,46.23
2019-02-12T03:38:40.784Z,46.22
2019-02-12T03:41:09.706Z,46.15
2019-02-12T03:43:38.661Z,46.14
2019-02-12T03:46:07.597Z,46.12
2019-02-12T03:48:36.533Z,46.19
2019-02-12T03:51:05.457Z,46.21
2019-02-12T03:53:34.529Z,46.17
2019-02-12T03:56:03.446Z,46.17
2019-02-12T03:58:32.403Z,46.16
2019-02-12T04:01:01.977Z,46.17
2019-02-12T04:03:31.261Z,46.21
2019-02-12T04:06:00.215Z,46.18
2019-02-12T04:08:29.210Z,46.26
2019-02-12T04:10:58.074Z,46.25
2019-02-12T04:13:27.004Z,46.42
2019-02-12T04:15:55.945Z,46.44
2019-02-12T04:18:24.895Z,46.45
2019-02-12T04:20:53.754Z,46.48
2019-02-12T04:23:26.225Z,46.48
2019-02-12T04:25:55.085Z,46.51
2019-02-12T04:28:24.022Z,46.56
2019-02-12T04:30:52.932Z,46.56
2019-02-12T04:33:21.854Z,46.53
2019-02-12T04:35:50.805Z,46.52
2019-02-12T04:38:19.732Z,46.55
2019-02-12T04:40:48.615Z,46.48
2019-02-12T04:43:17.553Z,46.42
2019-02-12T04:45:46.507Z,46.37
2019-02-12T04:48:15.447Z,46.34
2019-02-12T04:50:44.435Z,46.36
2019-02-12T04:53:13.369Z,46.29
2019-02-12T04:55:42.289Z,46.29
2019-02-12T04:58:11.314Z,46.31
2019-02-12T05:00:40.239Z,46.24
2019-02-12T05:03:09.200Z,46.21
2019-02-12T05:05:38.123Z,46.09
2019-02-12T05:08:07.083Z,46.18
2019-02-12T05:10:38.703Z,46.11
2019-02-12T05:13:07.527Z,46.17
2019-02-12T05:15:36.471Z,46.18
2019-02-12T05:18:05.341Z,46.08
2019-02-12T05:20:34.265Z,46.22
2019-02-12T05:23:03.197Z,46.22
2019-02-12T05:25:32.173Z,46.30
2019-02-12T05:28:01.102Z,46.36
2019-02-12T05:30:30.021Z,46.32
2019-02-12T05:32:58.935Z,46.37
2019-02-12T05:35:27.858Z,46.38
2019-02-12T05:37:56.813Z,46.46
2019-02-12T05:40:25.686Z,46.47
2019-02-12T05:42:54.547Z,46.52
2019-02-12T05:45:23.489Z,46.46
2019-02-12T05:47:52.482Z,46.46
2019-02-12T05:50:21.326Z,46.43
2019-02-12T05:52:54.258Z,46.32
2019-02-12T05:55:20.965Z,46.33
2019-02-12T05:57:49.811Z,46.29
2019-02-12T06:00:19.830Z,46.25
2019-02-12T06:02:48.669Z,46.29
2019-02-12T06:05:27.729Z,46.23
2019-02-12T06:07:56.695Z,46.21
2019-02-12T06:10:25.648Z,46.15
2019-02-12T06:12:54.646Z,46.15
2019-02-12T06:15:23.569Z,46.13
2019-02-12T06:17:52.499Z,46.17
2019-02-12T06:20:21.446Z,46.07
2019-02-12T06:22:50.359Z,46.12
2019-02-12T06:25:19.320Z,46.08
2019-02-12T06:27:48.251Z,46.08
2019-02-12T06:30:17.185Z,45.99
2019-02-12T06:32:46.122Z,46.01
2019-02-12T06:35:15.036Z,46.01
2019-02-12T06:37:44.021Z,46.06
2019-02-12T06:40:12.941Z,46.36
2019-02-12T06:42:41.873Z,46.48
2019-02-12T06:45:10.750Z,46.69
2019-02-12T06:47:39.792Z,46.77
2019-02-12T06:50:09.670Z,46.98
2019-02-12T06:52:38.551Z,47.12
2019-02-12T06:55:08.281Z,47.19
2019-02-12T06:57:37.268Z,47.18
2019-02-12T07:00:06.879Z,47.29
2019-02-12T07:03:15.963Z,47.36
2019-02-12T07:05:48.990Z,47.46
2019-02-12T07:08:39.381Z,47.43
2019-02-12T07:12:07.630Z,47.30
2019-02-12T07:15:21.829Z,47.08
2019-02-12T07:18:29.127Z,47.23
2019-02-12T07:21:34.999Z,47.39
2019-02-12T07:24:37.881Z,47.31
2019-02-12T07:27:48.223Z,47.25
2019-02-12T07:30:57.300Z,47.38
2019-02-12T07:33:54.424Z,47.60
2019-02-12T07:37:00.991Z,40.09
2019-02-12T07:40:35.140Z,36.57
2019-02-12T07:43:36.717Z,36.06
2019-02-12T07:46:47.331Z,37.58
2019-02-12T07:50:15.427Z,37.44
2019-02-12T07:53:30.906Z,37.47
2019-02-12T07:56:27.228Z,38.54
2019-02-12T07:59:35.842Z,42.21
2019-02-12T08:02:25.625Z,44.27
2019-02-12T08:05:50.780Z,44.67
2019-02-12T08:09:16.325Z,44.76
2019-02-12T08:12:16.158Z,44.59
2019-02-12T08:15:10.031Z,44.47
2019-02-12T08:18:17.079Z,43.46
2019-02-12T08:21:11.321Z,44.45
2019-02-12T08:24:24.766Z,44.33
2019-02-12T08:27:18.980Z,43.83
2019-02-12T08:30:19.603Z,43.95
2019-02-12T08:33:31.145Z,43.50
2019-02-12T08:36:23.591Z,43.89
2019-02-12T08:39:16.387Z,43.88
2019-02-12T08:42:16.583Z,43.88
2019-02-12T08:45:20.492Z,43.68
2019-02-12T08:48:27.364Z,43.61
2019-02-12T08:51:25.116Z,43.60
2019-02-12T08:54:30.801Z,43.69
2019-02-12T08:57:40.926Z,43.88
2019-02-12T09:00:50.507Z,43.76
2019-02-12T09:04:02.701Z,43.63
2019-02-12T09:07:20.527Z,43.33
2019-02-12T09:10:25.151Z,43.18
2019-02-12T09:13:09.400Z,42.95
2019-02-12T09:16:14.288Z,42.57
2019-02-12T09:18:56.232Z,42.38
2019-02-12T09:22:00.398Z,42.33
2019-02-12T09:25:05.281Z,42.48
2019-02-12T09:27:51.171Z,42.18
2019-02-12T09:31:03.819Z,41.75
2019-02-12T09:34:14.227Z,42.01
2019-02-12T09:37:16.719Z,39.67
2019-02-12T09:40:19.451Z,41.10
2019-02-12T09:43:39.057Z,41.73
2019-02-12T09:46:46.458Z,41.56
2019-02-12T09:50:03.990Z,41.53
2019-02-12T09:53:23.489Z,41.56
2019-02-12T09:56:13.779Z,41.62
2019-02-12T09:58:54.777Z,41.73
2019-02-12T10:01:52.850Z,41.85
2019-02-12T10:04:43.035Z,42.46
2019-02-12T10:07:36.049Z,42.67
2019-02-12T10:10:34.451Z,42.71
2019-02-12T10:13:44.908Z,43.04
2019-02-12T10:16:36.040Z,43.43
2019-02-12T10:19:47.220Z,43.83
2019-02-12T10:22:59.886Z,44.32
2019-02-12T10:25:45.310Z,44.65
2019-02-12T10:28:59.168Z,45.16
2019-02-12T10:31:42.603Z,45.25
2019-02-12T10:34:11.925Z,45.21
2019-02-12T10:36:40.941Z,45.22
2019-02-12T10:39:11.550Z,45.06
2019-02-12T10:41:40.468Z,44.93
2019-02-12T10:44:09.463Z,44.75
2019-02-12T10:46:38.425Z,44.75
2019-02-12T10:49:07.379Z,44.69
2019-02-12T10:51:36.317Z,44.53
2019-02-12T10:54:05.269Z,44.46
2019-02-12T10:56:34.253Z,44.53
2019-02-12T10:59:03.190Z,44.57
2019-02-12T11:01:32.136Z,44.36
2019-02-12T11:04:01.110Z,44.12
2019-02-12T11:06:30.059Z,44.04
2019-02-12T11:08:58.919Z,43.94
2019-02-12T11:11:27.882Z,43.84
2019-02-12T11:13:56.838Z,43.61
2019-02-12T11:16:25.802Z,43.36
2019-02-12T11:18:54.767Z,43.20
2019-02-12T11:21:23.732Z,43.12
2019-02-12T11:23:52.692Z,43.22
2019-02-12T11:26:21.646Z,43.22
2019-02-12T11:28:50.568Z,43.29
2019-02-12T11:31:19.552Z,43.25
2019-02-12T11:33:48.477Z,43.23
2019-02-12T11:36:17.420Z,43.30
2019-02-12T11:38:46.388Z,43.28
2019-02-12T11:41:15.325Z,43.29
2019-02-12T11:43:44.251Z,43.56
2019-02-12T11:46:13.195Z,43.61
2019-02-12T11:48:42.135Z,42.92
2019-02-12T11:51:11.063Z,43.42
2019-02-12T11:53:40.179Z,43.66
2019-02-12T11:56:09.123Z,43.67
2019-02-12T11:58:38.077Z,43.79
2019-02-12T12:01:10.168Z,42.97
2019-02-12T12:03:39.110Z,43.67
2019-02-12T12:06:08.059Z,43.71
2019-02-12T12:08:37.018Z,43.42
2019-02-12T12:11:06.017Z,42.68
2019-02-12T12:13:34.961Z,43.64
2019-02-12T12:16:03.921Z,44.88
2019-02-12T12:18:33.048Z,45.55
2019-02-12T12:21:01.990Z,45.66
2019-02-12T12:23:30.943Z,44.48
2019-02-12T12:25:59.987Z,43.92
2019-02-12T12:28:28.963Z,45.07
2019-02-12T12:30:58.146Z,46.00
2019-02-12T12:33:27.102Z,46.07
2019-02-12T12:35:56.039Z,46.05
2019-02-12T12:38:25.005Z,45.21
2019-02-12T12:40:54.001Z,43.04
2019-02-12T12:43:22.988Z,42.06
2019-02-12T12:45:51.960Z,40.76
2019-02-12T12:48:20.861Z,40.40
2019-02-12T12:50:49.833Z,40.41
2019-02-12T12:53:18.779Z,41.49
2019-02-12T12:55:47.735Z,42.07
2019-02-12T12:58:16.697Z,42.25
2019-02-12T13:00:45.658Z,42.23
2019-02-12T13:03:14.624Z,40.42
2019-02-12T13:05:43.663Z,41.42
2019-02-12T13:08:12.606Z,41.93
2019-02-12T13:10:41.549Z,42.28
2019-02-12T13:13:10.548Z,42.74
2019-02-12T13:15:39.505Z,43.08
2019-02-12T13:18:08.497Z,43.33
2019-02-12T13:20:37.498Z,43.57
2019-02-12T13:23:06.470Z,43.85
2019-02-12T13:25:35.452Z,44.04
2019-02-12T13:28:04.456Z,44.14
2019-02-12T13:30:33.406Z,44.22
2019-02-12T13:33:02.447Z,44.27
2019-02-12T13:35:31.447Z,44.42
2019-02-12T13:38:00.375Z,44.62
2019-02-12T13:40:29.338Z,44.75
2019-02-12T13:42:58.306Z,44.79
2019-02-12T13:45:27.255Z,44.73
2019-02-12T13:47:56.188Z,44.72
2019-02-12T13:50:25.163Z,44.82
2019-02-12T13:52:54.030Z,44.98
2019-02-12T13:55:22.996Z,45.13
2019-02-12T13:57:51.940Z,45.11
2019-02-12T14:00:20.924Z,44.98
2019-02-12T14:02:49.899Z,44.81
2019-02-12T14:05:18.936Z,45.18
2019-02-12T14:07:47.931Z,45.55
2019-02-12T14:10:16.854Z,46.04
2019-02-12T14:12:45.753Z,46.04
2019-02-12T14:15:14.759Z,46.14
2019-02-12T14:17:43.775Z,46.13
2019-02-12T14:20:13.612Z,46.11
2019-02-12T14:22:42.565Z,45.80
2019-02-12T14:25:11.826Z,45.80
2019-02-12T14:27:40.768Z,46.07
2019-02-12T14:30:11.927Z,46.05
2019-02-12T14:32:40.917Z,45.33
2019-02-12T14:35:10.474Z,44.72
2019-02-12T14:37:39.450Z,44.65
2019-02-12T14:40:09.707Z,43.03
2019-02-12T14:42:38.699Z,42.66
2019-02-12T14:45:09.351Z,42.41
2019-02-12T14:47:38.342Z,42.46
2019-02-12T14:50:08.511Z,43.00
2019-02-12T14:52:37.464Z,43.17
2019-02-12T14:55:06.436Z,42.97
2019-02-12T14:57:35.458Z,43.71
2019-02-12T15:00:04.478Z,44.57
2019-02-12T15:02:33.468Z,43.66
2019-02-12T15:05:02.441Z,44.37
2019-02-12T15:07:31.400Z,44.90
2019-02-12T15:10:00.391Z,45.04
2019-02-12T15:12:29.336Z,45.09
2019-02-12T15:14:58.322Z,45.00
2019-02-12T15:17:27.374Z,45.09
2019-02-12T15:19:56.308Z,44.55
2019-02-12T15:22:25.336Z,44.47
2019-02-12T15:24:54.402Z,44.14
2019-02-12T15:27:23.371Z,42.83
2019-02-12T15:29:52.409Z,42.64
2019-02-12T15:32:21.318Z,42.17
2019-02-12T15:34:50.319Z,41.97
2019-02-12T15:37:19.440Z,41.73
2019-02-12T15:39:48.484Z,41.65
2019-02-12T15:42:17.495Z,41.65
2019-02-12T15:44:46.461Z,41.64
2019-02-12T15:47:15.495Z,41.76
2019-02-12T15:49:44.452Z,42.13
2019-02-12T15:52:13.443Z,42.97
2019-02-12T15:54:42.621Z,43.21
2019-02-12T15:57:11.657Z,42.40
2019-02-12T15:59:40.670Z,42.06
2019-02-12T16:02:11.594Z,41.96
2019-02-12T16:04:40.554Z,41.93
2019-02-12T16:07:09.650Z,41.70
2019-02-12T16:09:38.664Z,41.48
2019-02-12T16:12:07.631Z,41.34
2019-02-12T16:14:36.650Z,41.21
2019-02-12T16:17:05.672Z,40.99
2019-02-12T16:19:34.636Z,40.92
2019-02-12T16:22:03.654Z,40.88
2019-02-12T16:24:32.651Z,40.79
2019-02-12T16:27:01.645Z,40.74
2019-02-12T16:29:30.701Z,40.68
2019-02-12T16:31:59.641Z,40.67
2019-02-12T16:34:28.746Z,40.67
2019-02-12T16:36:57.751Z,40.65
2019-02-12T16:39:26.818Z,40.62
2019-02-12T16:41:55.792Z,40.60
2019-02-12T16:44:24.905Z,40.59
2019-02-12T16:46:54.041Z,40.63
2019-02-12T16:49:23.033Z,40.65
2019-02-12T16:51:52.059Z,40.70
2019-02-12T16:54:21.517Z,40.73
2019-02-12T16:56:50.701Z,40.80
2019-02-12T16:59:20.077Z,41.19
2019-02-12T17:01:49.439Z,41.62
2019-02-12T17:04:18.818Z,41.92
2019-02-12T17:06:48.061Z,41.75
2019-02-12T17:09:17.812Z,41.39
2019-02-12T17:11:46.905Z,41.13
2019-02-12T17:14:15.907Z,40.94
2019-02-12T17:16:44.966Z,40.89
2019-02-12T17:19:14.237Z,40.82
2019-02-12T17:21:43.297Z,40.87
2019-02-12T17:24:12.420Z,40.88
2019-02-12T17:26:41.518Z,40.90
2019-02-12T17:29:10.526Z,40.86
2019-02-12T17:31:39.783Z,40.85
2019-02-12T17:34:08.813Z,40.84
2019-02-12T17:36:39.151Z,40.84
2019-02-12T17:39:08.253Z,41.09
2019-02-12T17:41:37.556Z,41.79
2019-02-12T17:44:07.189Z,42.11
2019-02-12T17:46:36.356Z,41.86
2019-02-12T17:49:05.370Z,41.31
2019-02-12T17:51:34.480Z,41.00
2019-02-12T17:54:04.516Z,40.95
2019-02-12T17:56:33.687Z,40.79
2019-02-12T17:59:03.049Z,40.70
2019-02-12T18:01:32.422Z,40.72
2019-02-12T18:04:01.835Z,40.77
2019-02-12T18:06:31.167Z,40.80
2019-02-12T18:09:00.791Z,40.80
2019-02-12T18:11:29.875Z,41.26
2019-02-12T18:13:59.937Z,41.79
2019-02-12T18:16:29.060Z,42.15
2019-02-12T18:18:58.443Z,42.38
2019-02-12T18:21:27.652Z,42.64
2019-02-12T18:23:57.011Z,42.64
2019-02-12T18:26:33.100Z,42.58
2019-02-12T18:28:59.784Z,42.42
2019-02-12T18:31:29.043Z,42.36
2019-02-12T18:33:58.522Z,42.42
2019-02-12T18:36:28.125Z,42.55
2019-02-12T18:38:57.797Z,42.78
2019-02-12T18:41:27.385Z,42.91
2019-02-12T18:44:00.380Z,43.34
2019-02-12T18:46:29.235Z,42.86
2019-02-12T18:48:59.899Z,42.55
2019-02-12T18:51:31.436Z,42.37
2019-02-12T18:54:00.998Z,42.32
2019-02-12T18:56:30.841Z,42.60
2019-02-12T18:59:00.386Z,42.81
2019-02-12T19:01:29.809Z,43.16
2019-02-12T19:04:00.557Z,43.50
2019-02-12T19:06:31.717Z,43.39
2019-02-12T19:09:01.113Z,43.41
2019-02-12T19:11:31.521Z,43.91
2019-02-12T19:14:01.379Z,43.39
2019-02-12T19:16:31.361Z,43.86
2019-02-12T19:19:01.203Z,44.13
2019-02-12T19:21:31.798Z,43.63
2019-02-12T19:24:01.198Z,43.09
2019-02-12T19:26:30.589Z,42.90
2019-02-12T19:28:59.836Z,42.67
2019-02-12T19:31:29.224Z,42.55
2019-02-12T19:33:59.017Z,42.39
2019-02-12T19:36:28.985Z,42.26
2019-02-12T19:38:59.286Z,42.18
2019-02-12T19:41:29.951Z,42.12
2019-02-12T19:43:59.335Z,42.06
2019-02-12T19:46:28.859Z,42.00
2019-02-12T19:48:58.710Z,41.98
2019-02-12T19:51:27.910Z,41.98
2019-02-12T19:53:57.898Z,41.94
2019-02-12T19:56:27.095Z,41.91
2019-02-12T19:58:56.983Z,41.91
2019-02-12T20:01:26.527Z,41.93
2019-02-12T20:03:55.868Z,42.01
2019-02-12T20:06:25.889Z,42.01
2019-02-12T20:08:55.293Z,41.99
2019-02-12T20:11:25.007Z,41.94
2019-02-12T20:13:54.319Z,41.83
2019-02-12T20:16:23.466Z,41.78
2019-02-12T20:18:53.294Z,41.72
2019-02-12T20:21:23.218Z,41.69
2019-02-12T20:23:53.196Z,41.62
2019-02-12T20:26:23.043Z,41.57
2019-02-12T20:28:55.818Z,41.49
2019-02-12T20:31:26.000Z,41.44
2019-02-12T20:33:57.040Z,41.40
2019-02-12T20:36:26.689Z,41.36
2019-02-12T20:38:57.388Z,41.29
2019-02-12T20:41:26.826Z,41.24
2019-02-12T20:43:56.526Z,41.20
2019-02-12T20:46:25.647Z,41.19
2019-02-12T20:48:55.236Z,41.17
2019-02-12T20:51:24.417Z,41.15
2019-02-12T20:53:53.913Z,41.15
2019-02-12T20:56:23.124Z,41.14
2019-02-12T20:58:52.360Z,41.13
2019-02-12T21:01:22.154Z,41.14
2019-02-12T21:03:51.953Z,41.15
2019-02-12T21:06:21.230Z,41.13
2019-02-12T21:08:50.279Z,41.13
2019-02-12T21:11:19.629Z,41.12
2019-02-12T21:13:48.718Z,41.16
2019-02-12T21:16:17.964Z,41.19
2019-02-12T21:18:47.245Z,41.24
2019-02-12T21:21:16.232Z,41.26
2019-02-12T21:23:45.322Z,41.44
2019-02-12T21:26:14.294Z,41.41
2019-02-12T21:28:43.249Z,41.34
2019-02-12T21:31:13.152Z,41.32
2019-02-12T21:33:42.540Z,41.34
2019-02-12T21:36:11.547Z,41.40
2019-02-12T21:38:40.549Z,41.42
2019-02-12T21:41:11.347Z,41.46
2019-02-12T21:43:40.589Z,41.53
2019-02-12T21:46:09.898Z,41.60
2019-02-12T21:48:38.890Z,41.66
2019-02-12T21:51:07.883Z,41.73
2019-02-12T21:53:37.062Z,41.84
2019-02-12T21:56:06.129Z,41.93
2019-02-12T21:58:36.720Z,42.03
2019-02-12T22:01:05.686Z,42.18
2019-02-12T22:03:34.646Z,42.33
2019-02-12T22:06:03.660Z,42.45
2019-02-12T22:08:32.653Z,42.56
2019-02-12T22:11:01.699Z,42.73
2019-02-12T22:13:30.669Z,42.83
2019-02-12T22:15:59.636Z,42.87
2019-02-12T22:18:28.589Z,42.91
2019-02-12T22:20:57.519Z,43.06
2019-02-12T22:23:26.504Z,43.18
2019-02-12T22:25:55.590Z,43.21
2019-02-12T22:28:24.576Z,43.26
2019-02-12T22:30:53.522Z,43.34
2019-02-12T22:33:22.495Z,43.61
2019-02-12T22:35:51.357Z,43.86
2019-02-12T22:38:20.342Z,44.05
2019-02-12T22:40:49.330Z,44.30
2019-02-12T22:43:18.291Z,44.61
2019-02-12T22:45:47.283Z,44.98
2019-02-12T22:48:16.257Z,45.35
2019-02-12T22:50:45.231Z,45.56
2019-02-12T22:53:14.182Z,45.79
2019-02-12T22:55:43.150Z,45.97
2019-02-12T22:58:12.131Z,46.07
2019-02-12T23:00:58.623Z,46.12
2019-02-12T23:03:27.598Z,46.14
2019-02-12T23:05:56.537Z,46.21
2019-02-12T23:08:25.531Z,46.18
2019-02-12T23:10:54.471Z,46.12
2019-02-12T23:13:23.441Z,46.08
2019-02-12T23:15:52.435Z,46.08
2019-02-12T23:18:21.349Z,46.03
2019-02-12T23:20:50.237Z,46.03
2019-02-12T23:23:19.184Z,46.02
2019-02-12T23:25:48.171Z,45.98
2019-02-12T23:28:17.182Z,45.94
2019-02-12T23:30:46.116Z,45.94
2019-02-12T23:33:15.062Z,45.91
2019-02-12T23:35:44.016Z,45.87
2019-02-12T23:38:13.018Z,45.88
2019-02-12T23:40:41.910Z,45.82
2019-02-12T23:43:10.915Z,45.81
2019-02-12T23:45:39.699Z,45.79
2019-02-12T23:48:08.658Z,45.72
2019-02-12T23:50:37.607Z,45.69
2019-02-12T23:53:06.589Z,45.68
2019-02-12T23:55:35.586Z,45.66
2019-02-12T23:58:06.275Z,45.64
